Tangier Island — WDH2080 — position and weather

sailwx.info

Track history (hours):
 
Tides and Currents Weather Stations Pressure Air Temp Water Temp Dewpoint Dewpoint Depression Visibility Wind Speed Wind Dir Waves Ship Positions

Tangier Island

Owner: Vane Line Bunkering, Inc, Philadelphia, PA. More information available from US FCC via Universal Licensing System.

Last reported at 2018-May-15 04:38 UTC. Time now 2018-Jun-22 20:45 UTC.
Position N 27°41' W 082°35'.
Warning: this ship's position is 38 days out of date.

; draft 4.3 m.

Type: Tug. MMSI: 367594190.

Date/timePositionNaut miles runAvg speedWind from/ knotsBaromVisibWave heightAir tempDewpointWater temp
2018-May-15 04:38N 27°41' W 082°35'1 7.6
2018-May-15 04:30N 27°42' W 082°34'3 7.1
2018-May-15 04:00N 27°45' W 082°32'3 6.7
2018-May-15 03:30N 27°48' W 082°30'4 7.0
2018-May-15 03:00N 27°50' W 082°27'4 7.8
2018-May-15 02:30N 27°54' W 082°26'2 3.4
2018-May-15 02:00N 27°55' W 082°25'0 0.0
2018-May-15 01:30N 27°55' W 082°25'0 0.0
2018-May-15 01:00N 27°55' W 082°25'0 0.0
2018-May-15 00:30N 27°55' W 082°25'0 0.0
2018-May-15 00:00N 27°55' W 082°25'0 0.0
2018-May-14 23:30N 27°55' W 082°25'0 0.0
2018-May-14 23:00N 27°55' W 082°25'0 0.0
2018-May-14 22:30N 27°55' W 082°25'0 0.0
2018-May-14 22:00N 27°55' W 082°25'0 0.0
2018-May-14 21:30N 27°55' W 082°25'0 0.0
2018-May-14 21:00N 27°55' W 082°25'0 0.0
2018-May-14 20:30N 27°55' W 082°25'0 0.0
2018-May-14 20:00N 27°55' W 082°25'0 0.0
2018-May-14 19:30N 27°55' W 082°25'0 0.0
2018-May-14 19:00N 27°55' W 082°25'0 0.0
2018-May-14 18:30N 27°55' W 082°25'0 0.0
2018-May-14 18:00N 27°55' W 082°25'0 0.0
2018-May-14 17:30N 27°55' W 082°25'0 0.0
2018-May-14 17:00N 27°55' W 082°25'0 0.0
2018-May-14 16:30N 27°55' W 082°25'1 2.3
2018-May-14 16:00N 27°54' W 082°26'2 4.9
2018-May-14 15:30N 27°57' W 082°27'0 0.2
2018-May-14 14:58N 27°57' W 082°27'0 0.0
2018-May-14 14:28N 27°57' W 082°27'0 0.0
2018-May-14 13:58N 27°57' W 082°27'0 0.0
2018-May-14 13:28N 27°57' W 082°27'0 0.0
2018-May-14 12:58N 27°57' W 082°27'0 0.0
2018-May-14 12:28N 27°57' W 082°27'0 0.0
2018-May-14 11:55N 27°57' W 082°27'0 0.0
2018-May-14 11:30N 27°57' W 082°27'0 0.0
2018-May-14 11:00N 27°57' W 082°27'0 0.7
2018-May-14 10:30N 27°56' W 082°27'2 3.6
2018-May-14 10:00N 27°55' W 082°26'1 1.9
2018-May-14 09:29N 27°55' W 082°26'0 0.0
2018-May-14 08:59N 27°55' W 082°26'0 0.0
2018-May-14 08:29N 27°55' W 082°26'0 0.0
2018-May-14 07:59N 27°55' W 082°26'0 0.0
2018-May-14 07:26N 27°55' W 082°26'0 0.0
2018-May-14 06:59N 27°55' W 082°26'0 0.0
2018-May-14 06:29N 27°55' W 082°26'0 0.0
2018-May-14 05:59N 27°55' W 082°26'0 0.0
2018-May-14 05:29N 27°55' W 082°26'0 0.0
2018-May-14 04:59N 27°55' W 082°26'0 0.0
2018-May-14 04:29N 27°55' W 082°26'0 0.0
2018-May-14 03:59N 27°55' W 082°26'0 0.0
2018-May-14 03:29N 27°55' W 082°26'0 0.0
2018-May-14 02:59N 27°55' W 082°26'0 0.0
2018-May-14 02:29N 27°55' W 082°26'0 0.0
2018-May-14 01:59N 27°55' W 082°26'0 0.0
2018-May-14 01:29N 27°55' W 082°26'0 0.0
2018-May-14 00:59N 27°55' W 082°26'0 0.0
2018-May-14 00:29N 27°55' W 082°26'0 0.0
2018-May-13 23:59N 27°55' W 082°26'0 0.0
2018-May-13 23:29N 27°55' W 082°26'0 0.0
2018-May-13 22:59N 27°55' W 082°26'0 0.0
2018-May-13 22:26N 27°55' W 082°26'0 0.0
2018-May-13 21:59N 27°55' W 082°26'0 0.0
2018-May-13 21:29N 27°55' W 082°26'0 0.0
2018-May-13 20:59N 27°55' W 082°26'0 0.0
2018-May-13 20:29N 27°55' W 082°26'0 0.0
2018-May-13 19:59N 27°55' W 082°26'0 0.0
2018-May-13 19:29N 27°55' W 082°26'0 0.0
2018-May-13 18:59N 27°55' W 082°26'0 0.0
2018-May-13 18:29N 27°55' W 082°26'0 0.0
2018-May-13 17:59N 27°55' W 082°26'0 0.0
2018-May-13 17:29N 27°55' W 082°26'0 0.0
2018-May-13 16:59N 27°55' W 082°26'0 1.0
2018-May-13 16:30N 27°55' W 082°26'2 3.6
2018-May-13 16:00N 27°56' W 082°27'0 0.7
2018-May-13 15:30N 27°57' W 082°27'0 0.6
2018-May-13 15:00N 27°56' W 082°27'0 0.0
2018-May-13 14:30N 27°56' W 082°27'0 0.0
2018-May-13 14:00N 27°56' W 082°27'0 0.0
2018-May-13 13:30N 27°56' W 082°27'0 0.0
2018-May-13 13:00N 27°56' W 082°27'0 0.0
2018-May-13 12:30N 27°56' W 082°27'0 0.0
2018-May-13 12:00N 27°56' W 082°27'0 0.0
2018-May-13 11:30N 27°56' W 082°27'0 0.0
2018-May-13 11:00N 27°56' W 082°27'0 0.0
2018-May-13 10:30N 27°56' W 082°27'0 0.0
2018-May-13 10:00N 27°56' W 082°27'0 0.0
2018-May-13 09:30N 27°56' W 082°27'0 0.0
2018-May-13 09:00N 27°56' W 082°27'0 0.0
2018-May-13 08:30N 27°56' W 082°27'0 0.0
2018-May-13 08:00N 27°56' W 082°27'0 0.0
2018-May-13 07:30N 27°56' W 082°27'0 0.0
2018-May-13 07:00N 27°56' W 082°27'0 0.0
2018-May-13 06:30N 27°56' W 082°27'0 0.0
2018-May-13 06:00N 27°56' W 082°27'0 0.0
2018-May-13 05:30N 27°56' W 082°27'0 0.0
2018-May-13 05:00N 27°56' W 082°27'0 0.0
2018-May-13 04:30N 27°56' W 082°27'0 0.0
2018-May-13 04:00N 27°56' W 082°27'0 0.0
2018-May-13 03:30N 27°56' W 082°27'0 0.0
2018-May-13 03:00N 27°56' W 082°27'0 0.0
2018-May-13 02:30N 27°56' W 082°27'0 0.0
2018-May-13 02:00N 27°56' W 082°27'0 0.0
2018-May-13 01:30N 27°56' W 082°27'0 0.0
2018-May-13 01:00N 27°56' W 082°27'0 0.0
2018-May-13 00:30N 27°56' W 082°27'0 0.0
2018-May-13 00:00N 27°56' W 082°27'0 0.0
2018-May-12 23:30N 27°56' W 082°27'0 0.0
2018-May-12 23:00N 27°56' W 082°27'0 0.0
2018-May-12 22:30N 27°56' W 082°27'0 0.0
2018-May-12 22:00N 27°56' W 082°27'0 0.0
2018-May-12 21:30N 27°56' W 082°27'0 0.0
2018-May-12 21:00N 27°56' W 082°27'0 0.0
2018-May-12 20:30N 27°56' W 082°27'0 0.0
2018-May-12 20:00N 27°56' W 082°27'0 0.0
2018-May-12 19:30N 27°56' W 082°27'0 0.0
2018-May-12 19:00N 27°56' W 082°27'0 0.0
2018-May-12 18:30N 27°56' W 082°27'0 0.0
2018-May-12 18:00N 27°56' W 082°27'0 0.0
2018-May-12 17:30N 27°56' W 082°27'0 0.0
2018-May-12 17:00N 27°56' W 082°27'0 0.0
2018-May-12 16:30N 27°56' W 082°27'0 0.0
2018-May-12 16:00N 27°56' W 082°27'0 0.0
2018-May-12 15:27N 27°56' W 082°27'0 0.0
2018-May-12 15:00N 27°56' W 082°27'0 0.0
2018-May-12 14:30N 27°56' W 082°27'0 0.0
2018-May-12 13:57N 27°56' W 082°27'0 0.0
2018-May-12 13:18N 27°56' W 082°27'0 0.0
2018-May-12 12:54N 27°56' W 082°27'0 0.0
2018-May-12 12:30N 27°56' W 082°27'0 0.0
2018-May-12 12:00N 27°56' W 082°27'0 0.0
2018-May-12 11:24N 27°56' W 082°27'0 0.0
2018-May-12 11:00N 27°56' W 082°27'0 0.0
2018-May-12 10:30N 27°56' W 082°27'0 0.0
2018-May-12 09:57N 27°56' W 082°27'0 0.0
2018-May-12 09:27N 27°56' W 082°27'0 0.0
2018-May-12 09:00N 27°56' W 082°27'0 0.0
2018-May-12 08:30N 27°56' W 082°27'0 0.0
2018-May-12 08:00N 27°56' W 082°27'0 0.0
2018-May-12 07:30N 27°56' W 082°27'0 0.0
2018-May-12 07:00N 27°56' W 082°27'0 0.0
2018-May-12 06:30N 27°56' W 082°27'0 0.0
2018-May-12 06:00N 27°56' W 082°27'0 0.0
2018-May-12 05:27N 27°56' W 082°27'0 0.0
2018-May-12 05:00N 27°56' W 082°27'0 0.0
2018-May-12 04:30N 27°56' W 082°27'0 0.0
2018-May-12 04:00N 27°56' W 082°27'0 0.0
2018-May-12 03:30N 27°56' W 082°27'0 0.0
2018-May-12 02:59N 27°56' W 082°27'0 0.0
2018-May-12 02:30N 27°56' W 082°27'0 0.0
2018-May-12 02:00N 27°56' W 082°27'0 0.0
2018-May-12 01:30N 27°56' W 082°27'0 0.0
2018-May-12 01:00N 27°56' W 082°27'0 0.0
2018-May-12 00:30N 27°56' W 082°27'0 0.0
2018-May-12 00:00N 27°56' W 082°27'0 0.0
2018-May-11 23:30N 27°56' W 082°27'0 0.0
2018-May-11 23:00N 27°56' W 082°27'0 0.0
2018-May-11 22:29N 27°56' W 082°27'0 0.0
2018-May-11 21:59N 27°56' W 082°27'0 0.0
2018-May-11 21:29N 27°56' W 082°27'0 0.0
2018-May-11 21:00N 27°56' W 082°27'0 0.0
2018-May-11 20:30N 27°56' W 082°27'0 0.0
2018-May-11 20:00N 27°56' W 082°27'0 0.0
2018-May-11 19:29N 27°56' W 082°27'0 0.0
2018-May-11 19:00N 27°56' W 082°27'0 0.0
2018-May-11 18:30N 27°56' W 082°27'0 0.0
2018-May-11 18:00N 27°56' W 082°27'0 0.0
2018-May-11 17:30N 27°56' W 082°27'0 0.0
2018-May-11 16:59N 27°56' W 082°27'0 0.0
2018-May-11 16:30N 27°56' W 082°27'0 0.0
2018-May-11 16:00N 27°56' W 082°27'0 0.0
2018-May-11 15:29N 27°56' W 082°27'0 0.0
2018-May-11 14:59N 27°56' W 082°27'0 0.0
2018-May-11 14:29N 27°56' W 082°27'0 0.0
2018-May-11 14:00N 27°56' W 082°27'0 0.0
2018-May-11 13:29N 27°56' W 082°27'0 0.0
2018-May-11 12:59N 27°56' W 082°27'0 0.0
2018-May-11 12:29N 27°56' W 082°27'0 0.0
2018-May-11 11:59N 27°56' W 082°27'0 0.0
2018-May-11 11:29N 27°56' W 082°27'0 0.0
2018-May-11 11:00N 27°56' W 082°27'0 0.0
2018-May-11 10:29N 27°56' W 082°27'0 0.0
2018-May-11 09:59N 27°56' W 082°27'0 0.0
2018-May-11 09:29N 27°56' W 082°27'0 0.0
2018-May-11 08:59N 27°56' W 082°27'0 0.0
2018-May-11 08:29N 27°56' W 082°27'0 0.0
2018-May-11 07:59N 27°56' W 082°27'0 0.0
2018-May-11 07:29N 27°56' W 082°27'0 0.0
2018-May-11 06:59N 27°56' W 082°27'0 0.0
2018-May-11 06:29N 27°56' W 082°27'0 0.0
2018-May-11 05:54N 27°56' W 082°27'0 0.0
2018-May-11 05:29N 27°56' W 082°27'0 0.0
2018-May-11 04:59N 27°56' W 082°27'0 0.0
2018-May-11 04:29N 27°56' W 082°27'0 0.0
2018-May-11 04:00N 27°56' W 082°27'0 0.0
2018-May-11 03:29N 27°56' W 082°27'0 0.0
2018-May-11 02:59N 27°56' W 082°27'0 0.0
2018-May-11 02:29N 27°56' W 082°27'0 0.0
2018-May-11 01:59N 27°56' W 082°27'0 0.0
2018-May-11 01:29N 27°56' W 082°27'0 0.0
2018-May-11 00:59N 27°56' W 082°27'0 0.0
2018-May-11 00:29N 27°56' W 082°27'0 0.0
2018-May-10 23:59N 27°56' W 082°27'0 0.0
2018-May-10 23:29N 27°56' W 082°27'0 0.0
2018-May-10 22:59N 27°56' W 082°27'0 0.0
2018-May-10 22:29N 27°56' W 082°27'0 0.0
2018-May-10 21:59N 27°56' W 082°27'0 0.0
2018-May-10 21:29N 27°56' W 082°27'0 0.0
2018-May-10 20:59N 27°56' W 082°27'0 0.0
2018-May-10 20:29N 27°56' W 082°27'0 0.0
2018-May-10 19:59N 27°56' W 082°27'0 0.0
2018-May-10 19:26N 27°56' W 082°27'0 0.0
2018-May-10 18:59N 27°56' W 082°27'0 0.0
2018-May-10 18:29N 27°56' W 082°27'0 0.0
2018-May-10 17:59N 27°56' W 082°27'0 0.0
2018-May-10 17:29N 27°56' W 082°27'0 0.0
2018-May-10 16:59N 27°56' W 082°27'0 0.0
2018-May-10 16:23N 27°56' W 082°27'0 0.0
2018-May-10 15:59N 27°56' W 082°27'0 0.0
2018-May-10 15:29N 27°56' W 082°27'0 0.0
2018-May-10 14:59N 27°56' W 082°27'0 0.0
2018-May-10 14:29N 27°56' W 082°27'0 0.0
2018-May-10 13:59N 27°56' W 082°27'0 0.0
2018-May-10 13:29N 27°56' W 082°27'0 0.0
2018-May-10 12:59N 27°56' W 082°27'0 0.0
2018-May-10 12:29N 27°56' W 082°27'0 0.0
2018-May-10 11:59N 27°56' W 082°27'0 0.0
2018-May-10 11:29N 27°56' W 082°27'0 0.0
2018-May-10 10:59N 27°56' W 082°27'0 0.0
2018-May-10 10:29N 27°56' W 082°27'0 0.0
2018-May-10 09:59N 27°56' W 082°27'0 0.0
2018-May-10 09:29N 27°56' W 082°27'0 0.0
2018-May-10 08:59N 27°56' W 082°27'0 0.0
2018-May-10 08:29N 27°56' W 082°27'0 0.0
2018-May-10 07:59N 27°56' W 082°27'0 0.0
2018-May-10 07:29N 27°56' W 082°27'0 0.0
2018-May-10 06:59N 27°56' W 082°27'0 0.0
2018-May-10 06:29N 27°56' W 082°27'0 0.0
2018-May-10 05:59N 27°56' W 082°27'0 0.0
2018-May-10 05:29N 27°56' W 082°27'0 0.0
2018-May-10 04:59N 27°56' W 082°27'0 0.0
2018-May-10 04:29N 27°56' W 082°27'0 0.0
2018-May-10 03:59N 27°56' W 082°27'0 0.0
2018-May-10 03:29N 27°56' W 082°27'0 0.0
2018-May-10 02:59N 27°56' W 082°27'0 0.0
2018-May-10 02:29N 27°56' W 082°27'0 0.0
2018-May-10 01:59N 27°56' W 082°27'0 0.0
2018-May-10 01:29N 27°56' W 082°27'0 0.0
2018-May-10 00:59N 27°56' W 082°27'0 0.0
2018-May-10 00:29N 27°56' W 082°27'0 0.0
2018-May-09 23:59N 27°56' W 082°27'0 0.0
2018-May-09 23:29N 27°56' W 082°27'0 0.0
2018-May-09 22:59N 27°56' W 082°27'0 0.0
2018-May-09 22:29N 27°56' W 082°27'0 0.0
2018-May-09 21:59N 27°56' W 082°27'0 0.0
2018-May-09 21:29N 27°56' W 082°27'0 0.0
2018-May-09 20:59N 27°56' W 082°27'0 0.0
2018-May-09 20:29N 27°56' W 082°27'0 0.0
2018-May-09 19:59N 27°56' W 082°27'0 0.0
2018-May-09 19:29N 27°56' W 082°27'0 0.0
2018-May-09 18:59N 27°56' W 082°27'0 0.0
2018-May-09 18:29N 27°56' W 082°27'0 0.0
2018-May-09 17:59N 27°56' W 082°27'0 0.0
2018-May-09 17:29N 27°56' W 082°27'0 0.0
2018-May-09 16:59N 27°56' W 082°27'0 0.0
2018-May-09 16:29N 27°56' W 082°27'0 0.0
2018-May-09 15:59N 27°56' W 082°27'0 0.0
2018-May-09 15:29N 27°56' W 082°27'0 0.0
2018-May-09 14:59N 27°56' W 082°27'0 0.4
2018-May-09 14:29N 27°57' W 082°27'0 0.5
2018-May-09 13:58N 27°56' W 082°27'0 0.0
2018-May-09 13:28N 27°56' W 082°27'0 0.0
2018-May-09 12:58N 27°56' W 082°27'0 0.0
2018-May-09 12:28N 27°56' W 082°27'0 0.0
2018-May-09 11:58N 27°56' W 082°27'0 0.0
2018-May-09 11:25N 27°56' W 082°27'0 0.0
2018-May-09 10:58N 27°56' W 082°27'0 0.0
2018-May-09 10:28N 27°56' W 082°27'0 0.0
2018-May-09 09:58N 27°56' W 082°27'0 0.0
2018-May-09 09:25N 27°56' W 082°27'0 0.0
2018-May-09 08:58N 27°56' W 082°27'0 0.0
2018-May-09 08:28N 27°56' W 082°27'0 0.0
2018-May-09 07:58N 27°56' W 082°27'0 0.0
2018-May-09 07:28N 27°56' W 082°27'0 0.0
2018-May-09 06:58N 27°56' W 082°27'0 0.0
2018-May-09 06:28N 27°56' W 082°27'0 0.0
2018-May-09 05:55N 27°56' W 082°27'0 0.0
2018-May-09 05:28N 27°56' W 082°27'0 0.0
2018-May-09 04:58N 27°56' W 082°27'0 0.0
2018-May-09 04:28N 27°56' W 082°27'0 0.0
2018-May-09 03:58N 27°56' W 082°27'0 0.0
2018-May-09 03:28N 27°56' W 082°27'0 0.0
2018-May-09 02:58N 27°56' W 082°27'0 0.0
2018-May-09 02:28N 27°56' W 082°27'0 0.0
2018-May-09 01:58N 27°56' W 082°27'0 0.0
2018-May-09 01:28N 27°56' W 082°27'0 0.0
2018-May-09 00:58N 27°56' W 082°27'0 0.0
2018-May-09 00:25N 27°56' W 082°27'0 0.0
2018-May-08 23:58N 27°56' W 082°27'0 0.0
2018-May-08 23:28N 27°56' W 082°27'0 0.0
2018-May-08 22:58N 27°56' W 082°27'0 0.0
2018-May-08 22:28N 27°56' W 082°27'0 0.0
2018-May-08 21:58N 27°56' W 082°27'0 0.0
2018-May-08 21:28N 27°56' W 082°27'0 0.0
2018-May-08 20:58N 27°56' W 082°27'0 0.0
2018-May-08 20:28N 27°56' W 082°27'0 0.0
2018-May-08 19:58N 27°56' W 082°27'0 0.0
2018-May-08 19:28N 27°56' W 082°27'0 0.0
2018-May-08 18:58N 27°56' W 082°27'0 0.0
2018-May-08 18:28N 27°56' W 082°27'0 0.0
2018-May-08 17:58N 27°56' W 082°27'0 0.0
2018-May-08 17:28N 27°56' W 082°27'0 0.0
2018-May-08 16:58N 27°56' W 082°27'0 0.0
2018-May-08 16:28N 27°56' W 082°27'0 0.0
2018-May-08 15:58N 27°56' W 082°27'0 0.0
2018-May-08 15:28N 27°56' W 082°27'0 0.0
2018-May-08 14:58N 27°56' W 082°27'0 0.0
2018-May-08 14:28N 27°56' W 082°27'0 0.0
2018-May-08 13:58N 27°56' W 082°27'0 0.0
2018-May-08 13:28N 27°56' W 082°27'0 0.0
2018-May-08 12:58N 27°56' W 082°27'0 0.0
2018-May-08 12:28N 27°56' W 082°27'0 0.0
2018-May-08 11:58N 27°56' W 082°27'0 0.0
2018-May-08 11:25N 27°56' W 082°27'0 0.0
2018-May-08 10:58N 27°56' W 082°27'0 0.0
2018-May-08 10:28N 27°56' W 082°27'0 0.0
2018-May-08 09:58N 27°56' W 082°27'0 0.0
2018-May-08 09:28N 27°56' W 082°27'0 0.0
2018-May-08 08:58N 27°56' W 082°27'0 0.0
2018-May-08 08:28N 27°56' W 082°27'0 0.0
2018-May-08 07:58N 27°56' W 082°27'0 0.0
2018-May-08 07:28N 27°56' W 082°27'0 0.0
2018-May-08 06:58N 27°56' W 082°27'0 0.0
2018-May-08 06:28N 27°56' W 082°27'0 0.0
2018-May-08 05:58N 27°56' W 082°27'0 0.0
2018-May-08 05:28N 27°56' W 082°27'0 0.0
2018-May-08 04:58N 27°56' W 082°27'0 0.0
2018-May-08 04:28N 27°56' W 082°27'0 0.0
2018-May-08 03:58N 27°56' W 082°27'0 0.0
2018-May-08 03:28N 27°56' W 082°27'0 0.0
2018-May-08 02:58N 27°56' W 082°27'0 0.0
2018-May-08 02:28N 27°56' W 082°27'0 0.0
2018-May-08 01:58N 27°56' W 082°27'0 0.0
2018-May-08 01:28N 27°56' W 082°27'0 0.0
2018-May-08 00:55N 27°56' W 082°27'0 0.0
2018-May-08 00:28N 27°56' W 082°27'0 0.0
2018-May-07 23:58N 27°56' W 082°27'0 0.0
2018-May-07 23:28N 27°56' W 082°27'0 0.0
2018-May-07 22:58N 27°56' W 082°27'0 0.0
2018-May-07 22:28N 27°56' W 082°27'0 0.0
2018-May-07 21:58N 27°56' W 082°27'0 0.0
2018-May-07 21:28N 27°56' W 082°27'0 0.0
2018-May-07 20:58N 27°56' W 082°27'0 0.0
2018-May-07 20:28N 27°56' W 082°27'0 0.0
2018-May-07 19:58N 27°56' W 082°27'0 0.0
2018-May-07 19:28N 27°56' W 082°27'0 0.0
2018-May-07 18:58N 27°56' W 082°27'0 0.0
2018-May-07 18:28N 27°56' W 082°27'0 0.0
2018-May-07 17:58N 27°56' W 082°27'0 0.0
2018-May-07 17:28N 27°56' W 082°27'0 0.0
2018-May-07 16:58N 27°56' W 082°27'0 0.0
2018-May-07 16:28N 27°56' W 082°27'0 0.0
2018-May-07 15:55N 27°56' W 082°27'0 0.0
2018-May-07 15:28N 27°56' W 082°27'0 0.0
2018-May-07 14:58N 27°56' W 082°27'0 0.0
2018-May-07 14:28N 27°56' W 082°27'0 0.0
2018-May-07 13:58N 27°56' W 082°27'0 0.0
2018-May-07 13:28N 27°56' W 082°27'0 0.0
2018-May-07 12:58N 27°56' W 082°27'0 0.0
2018-May-07 12:28N 27°56' W 082°27'0 0.0
2018-May-07 11:58N 27°56' W 082°27'0 0.0
2018-May-07 11:28N 27°56' W 082°27'0 0.0
2018-May-07 10:58N 27°56' W 082°27'0 0.0
2018-May-07 10:28N 27°56' W 082°27'0 0.0
2018-May-07 09:58N 27°56' W 082°27'0 0.0
2018-May-07 09:28N 27°56' W 082°27'0 0.0
2018-May-07 08:58N 27°56' W 082°27'0 0.0
2018-May-07 08:28N 27°56' W 082°27'0 0.0
2018-May-07 07:58N 27°56' W 082°27'0 0.0
2018-May-07 07:28N 27°56' W 082°27'0 0.0
2018-May-07 06:58N 27°56' W 082°27'0 0.0
2018-May-07 06:28N 27°56' W 082°27'0 0.0
2018-May-07 05:58N 27°56' W 082°27'0 0.0
2018-May-07 05:28N 27°56' W 082°27'0 0.0
2018-May-07 04:58N 27°56' W 082°27'0 0.0
2018-May-07 04:28N 27°56' W 082°27'0 0.0
2018-May-07 03:58N 27°56' W 082°27'0 0.0
2018-May-07 03:28N 27°56' W 082°27'0 0.0
2018-May-07 02:58N 27°56' W 082°27'0 0.0
2018-May-07 02:28N 27°56' W 082°27'0 0.0
2018-May-07 01:58N 27°56' W 082°27'0 0.0
2018-May-07 01:28N 27°56' W 082°27'0 0.0
2018-May-07 00:55N 27°56' W 082°27'0 0.0
2018-May-07 00:28N 27°56' W 082°27'0 0.0
2018-May-06 23:58N 27°56' W 082°27'0 0.0
2018-May-06 23:28N 27°56' W 082°27'0 0.0
2018-May-06 22:58N 27°56' W 082°27'0 0.0
2018-May-06 22:28N 27°56' W 082°27'0 0.0
2018-May-06 21:58N 27°56' W 082°27'0 0.0
2018-May-06 21:28N 27°56' W 082°27'0 0.0
2018-May-06 20:58N 27°56' W 082°27'0 0.0
2018-May-06 20:28N 27°56' W 082°27'0 0.0
2018-May-06 19:58N 27°56' W 082°27'0 0.0
2018-May-06 19:28N 27°56' W 082°27'0 0.0
2018-May-06 18:58N 27°56' W 082°27'0 0.0
2018-May-06 18:28N 27°56' W 082°27'0 0.0
2018-May-06 17:58N 27°56' W 082°27'0 0.0
2018-May-06 17:28N 27°56' W 082°27'0 0.0
2018-May-06 16:58N 27°56' W 082°27'0 0.0
2018-May-06 16:28N 27°56' W 082°27'0 0.0
2018-May-06 15:58N 27°56' W 082°27'0 0.0
2018-May-06 15:28N 27°56' W 082°27'0 0.0
2018-May-06 14:58N 27°56' W 082°27'0 0.0
2018-May-06 14:28N 27°56' W 082°27'0 0.0
2018-May-06 13:58N 27°56' W 082°27'0 0.0
2018-May-06 13:28N 27°56' W 082°27'0 0.0
2018-May-06 12:58N 27°56' W 082°27'0 0.0
2018-May-06 12:28N 27°56' W 082°27'0 0.0
2018-May-06 11:58N 27°56' W 082°27'0 0.0
2018-May-06 11:28N 27°56' W 082°27'0 0.0
2018-May-06 10:57N 27°56' W 082°27'0 0.0
2018-May-06 10:31N 27°56' W 082°27'0 0.0
2018-May-06 10:01N 27°56' W 082°27'0 0.0
2018-May-06 09:28N 27°56' W 082°27'0 0.0
2018-May-06 08:58N 27°56' W 082°27'0 0.0
2018-May-06 08:28N 27°56' W 082°27'0 0.0
2018-May-06 08:00N 27°56' W 082°27'0 0.0
2018-May-06 07:28N 27°56' W 082°27'0 0.0
2018-May-06 06:58N 27°56' W 082°27'0 0.0
2018-May-06 06:28N 27°56' W 082°27'0 0.0
2018-May-06 05:58N 27°56' W 082°27'0 0.0
2018-May-06 05:28N 27°56' W 082°27'0 0.0
2018-May-06 04:58N 27°56' W 082°27'0 0.0
2018-May-06 04:31N 27°56' W 082°27'0 0.0
2018-May-06 03:58N 27°56' W 082°27'0 0.0
2018-May-06 03:28N 27°56' W 082°27'0 0.0
2018-May-06 02:58N 27°56' W 082°27'0 0.0
2018-May-06 02:31N 27°56' W 082°27'0 0.0
2018-May-06 02:00N 27°56' W 082°27'0 0.0
2018-May-06 01:28N 27°56' W 082°27'0 0.0
2018-May-06 00:57N 27°56' W 082°27'0 0.0
2018-May-06 00:28N 27°56' W 082°27'0 0.0
2018-May-05 23:58N 27°56' W 082°27'0 0.0
2018-May-05 23:28N 27°56' W 082°27'0 0.0
2018-May-05 22:58N 27°56' W 082°27'0 0.0
2018-May-05 22:28N 27°56' W 082°27'0 0.0
2018-May-05 21:57N 27°56' W 082°27'0 0.0
2018-May-05 21:28N 27°56' W 082°27'0 0.0
2018-May-05 21:00N 27°56' W 082°27'0 0.0
2018-May-05 20:30N 27°56' W 082°27'0 0.0
2018-May-05 19:57N 27°56' W 082°27'0 0.0
2018-May-05 19:31N 27°56' W 082°27'0 0.0
2018-May-05 19:00N 27°56' W 082°27'0 0.0
2018-May-05 18:30N 27°56' W 082°27'0 0.0
2018-May-05 18:00N 27°56' W 082°27'0 0.0
2018-May-05 17:31N 27°56' W 082°27'0 0.0
2018-May-05 16:57N 27°56' W 082°27'0 0.0
2018-May-05 16:27N 27°56' W 082°27'0 0.0
2018-May-05 16:00N 27°56' W 082°27'0 0.0
2018-May-05 15:31N 27°56' W 082°27'0 0.0
2018-May-05 15:00N 27°56' W 082°27'0 0.0
2018-May-05 14:30N 27°56' W 082°27'0 0.0
2018-May-05 14:00N 27°56' W 082°27'0 0.0
2018-May-05 13:30N 27°56' W 082°27'0 0.0
2018-May-05 13:00N 27°56' W 082°27'0 0.0
2018-May-05 12:30N 27°56' W 082°27'0 0.0
2018-May-05 12:00N 27°56' W 082°27'0 0.0
2018-May-05 11:27N 27°56' W 082°27'0 0.0
2018-May-05 10:57N 27°56' W 082°27'0 0.0
2018-May-05 10:30N 27°56' W 082°27'0 0.0
2018-May-05 10:00N 27°56' W 082°27'0 0.0
2018-May-05 09:27N 27°56' W 082°27'0 0.0
2018-May-05 09:01N 27°56' W 082°27'0 0.0
2018-May-05 08:31N 27°56' W 082°27'0 0.0
2018-May-05 08:00N 27°56' W 082°27'0 0.0
2018-May-05 07:30N 27°56' W 082°27'0 0.0
2018-May-05 07:00N 27°56' W 082°27'0 0.0
2018-May-05 06:30N 27°56' W 082°27'0 0.0
2018-May-05 06:00N 27°56' W 082°27'0 0.0
2018-May-05 05:30N 27°56' W 082°27'0 0.0
2018-May-05 05:00N 27°56' W 082°27'  
Track history (hours):
 
Tides and Currents Weather Stations Pressure Air Temp Water Temp Dewpoint Dewpoint Depression Visibility Wind Speed Wind Dir Waves Ship Positions

Tangier Island

Owner: Vane Line Bunkering, Inc, Philadelphia, PA. More information available from US FCC via Universal Licensing System.

Last reported at 2018-May-15 04:38 UTC. Time now 2018-Jun-22 20:45 UTC.
Position N 27°41' W 082°35'.
Warning: this ship's position is 38 days out of date.

; draft 4.3 m.

Type: Tug. MMSI: 367594190.

Date/timePositionNaut miles runAvg speedWind from/ knotsBaromVisibWave heightAir tempDewpointWater temp
2018-May-15 04:38N 27°41' W 082°35'1 7.6
2018-May-15 04:30N 27°42' W 082°34'3 7.1
2018-May-15 04:00N 27°45' W 082°32'3 6.7
2018-May-15 03:30N 27°48' W 082°30'4 7.0
2018-May-15 03:00N 27°50' W 082°27'4 7.8
2018-May-15 02:30N 27°54' W 082°26'2 3.4
2018-May-15 02:00N 27°55' W 082°25'0 0.0
2018-May-15 01:30N 27°55' W 082°25'0 0.0
2018-May-15 01:00N 27°55' W 082°25'0 0.0
2018-May-15 00:30N 27°55' W 082°25'0 0.0
2018-May-15 00:00N 27°55' W 082°25'0 0.0
2018-May-14 23:30N 27°55' W 082°25'0 0.0
2018-May-14 23:00N 27°55' W 082°25'0 0.0
2018-May-14 22:30N 27°55' W 082°25'0 0.0
2018-May-14 22:00N 27°55' W 082°25'0 0.0
2018-May-14 21:30N 27°55' W 082°25'0 0.0
2018-May-14 21:00N 27°55' W 082°25'0 0.0
2018-May-14 20:30N 27°55' W 082°25'0 0.0
2018-May-14 20:00N 27°55' W 082°25'0 0.0
2018-May-14 19:30N 27°55' W 082°25'0 0.0
2018-May-14 19:00N 27°55' W 082°25'0 0.0
2018-May-14 18:30N 27°55' W 082°25'0 0.0
2018-May-14 18:00N 27°55' W 082°25'0 0.0
2018-May-14 17:30N 27°55' W 082°25'0 0.0
2018-May-14 17:00N 27°55' W 082°25'0 0.0
2018-May-14 16:30N 27°55' W 082°25'1 2.3
2018-May-14 16:00N 27°54' W 082°26'2 4.9
2018-May-14 15:30N 27°57' W 082°27'0 0.2
2018-May-14 14:58N 27°57' W 082°27'0 0.0
2018-May-14 14:28N 27°57' W 082°27'0 0.0
2018-May-14 13:58N 27°57' W 082°27'0 0.0
2018-May-14 13:28N 27°57' W 082°27'0 0.0
2018-May-14 12:58N 27°57' W 082°27'0 0.0
2018-May-14 12:28N 27°57' W 082°27'0 0.0
2018-May-14 11:55N 27°57' W 082°27'0 0.0
2018-May-14 11:30N 27°57' W 082°27'0 0.0
2018-May-14 11:00N 27°57' W 082°27'0 0.7
2018-May-14 10:30N 27°56' W 082°27'2 3.6
2018-May-14 10:00N 27°55' W 082°26'1 1.9
2018-May-14 09:29N 27°55' W 082°26'0 0.0
2018-May-14 08:59N 27°55' W 082°26'0 0.0
2018-May-14 08:29N 27°55' W 082°26'0 0.0
2018-May-14 07:59N 27°55' W 082°26'0 0.0
2018-May-14 07:26N 27°55' W 082°26'0 0.0
2018-May-14 06:59N 27°55' W 082°26'0 0.0
2018-May-14 06:29N 27°55' W 082°26'0 0.0
2018-May-14 05:59N 27°55' W 082°26'0 0.0
2018-May-14 05:29N 27°55' W 082°26'0 0.0
2018-May-14 04:59N 27°55' W 082°26'0 0.0
2018-May-14 04:29N 27°55' W 082°26'0 0.0
2018-May-14 03:59N 27°55' W 082°26'0 0.0
2018-May-14 03:29N 27°55' W 082°26'0 0.0
2018-May-14 02:59N 27°55' W 082°26'0 0.0
2018-May-14 02:29N 27°55' W 082°26'0 0.0
2018-May-14 01:59N 27°55' W 082°26'0 0.0
2018-May-14 01:29N 27°55' W 082°26'0 0.0
2018-May-14 00:59N 27°55' W 082°26'0 0.0
2018-May-14 00:29N 27°55' W 082°26'0 0.0
2018-May-13 23:59N 27°55' W 082°26'0 0.0
2018-May-13 23:29N 27°55' W 082°26'0 0.0
2018-May-13 22:59N 27°55' W 082°26'0 0.0
2018-May-13 22:26N 27°55' W 082°26'0 0.0
2018-May-13 21:59N 27°55' W 082°26'0 0.0
2018-May-13 21:29N 27°55' W 082°26'0 0.0
2018-May-13 20:59N 27°55' W 082°26'0 0.0
2018-May-13 20:29N 27°55' W 082°26'0 0.0
2018-May-13 19:59N 27°55' W 082°26'0 0.0
2018-May-13 19:29N 27°55' W 082°26'0 0.0
2018-May-13 18:59N 27°55' W 082°26'0 0.0
2018-May-13 18:29N 27°55' W 082°26'0 0.0
2018-May-13 17:59N 27°55' W 082°26'0 0.0
2018-May-13 17:29N 27°55' W 082°26'0 0.0
2018-May-13 16:59N 27°55' W 082°26'0 1.0
2018-May-13 16:30N 27°55' W 082°26'2 3.6
2018-May-13 16:00N 27°56' W 082°27'0 0.7
2018-May-13 15:30N 27°57' W 082°27'0 0.6
2018-May-13 15:00N 27°56' W 082°27'0 0.0
2018-May-13 14:30N 27°56' W 082°27'0 0.0
2018-May-13 14:00N 27°56' W 082°27'0 0.0
2018-May-13 13:30N 27°56' W 082°27'0 0.0
2018-May-13 13:00N 27°56' W 082°27'0 0.0
2018-May-13 12:30N 27°56' W 082°27'0 0.0
2018-May-13 12:00N 27°56' W 082°27'0 0.0
2018-May-13 11:30N 27°56' W 082°27'0 0.0
2018-May-13 11:00N 27°56' W 082°27'0 0.0
2018-May-13 10:30N 27°56' W 082°27'0 0.0
2018-May-13 10:00N 27°56' W 082°27'0 0.0
2018-May-13 09:30N 27°56' W 082°27'0 0.0
2018-May-13 09:00N 27°56' W 082°27'0 0.0
2018-May-13 08:30N 27°56' W 082°27'0 0.0
2018-May-13 08:00N 27°56' W 082°27'0 0.0
2018-May-13 07:30N 27°56' W 082°27'0 0.0
2018-May-13 07:00N 27°56' W 082°27'0 0.0
2018-May-13 06:30N 27°56' W 082°27'0 0.0
2018-May-13 06:00N 27°56' W 082°27'0 0.0
2018-May-13 05:30N 27°56' W 082°27'0 0.0
2018-May-13 05:00N 27°56' W 082°27'0 0.0
2018-May-13 04:30N 27°56' W 082°27'0 0.0
2018-May-13 04:00N 27°56' W 082°27'0 0.0
2018-May-13 03:30N 27°56' W 082°27'0 0.0
2018-May-13 03:00N 27°56' W 082°27'0 0.0
2018-May-13 02:30N 27°56' W 082°27'0 0.0
2018-May-13 02:00N 27°56' W 082°27'0 0.0
2018-May-13 01:30N 27°56' W 082°27'0 0.0
2018-May-13 01:00N 27°56' W 082°27'0 0.0
2018-May-13 00:30N 27°56' W 082°27'0 0.0
2018-May-13 00:00N 27°56' W 082°27'0 0.0
2018-May-12 23:30N 27°56' W 082°27'0 0.0
2018-May-12 23:00N 27°56' W 082°27'0 0.0
2018-May-12 22:30N 27°56' W 082°27'0 0.0
2018-May-12 22:00N 27°56' W 082°27'0 0.0
2018-May-12 21:30N 27°56' W 082°27'0 0.0
2018-May-12 21:00N 27°56' W 082°27'0 0.0
2018-May-12 20:30N 27°56' W 082°27'0 0.0
2018-May-12 20:00N 27°56' W 082°27'0 0.0
2018-May-12 19:30N 27°56' W 082°27'0 0.0
2018-May-12 19:00N 27°56' W 082°27'0 0.0
2018-May-12 18:30N 27°56' W 082°27'0 0.0
2018-May-12 18:00N 27°56' W 082°27'0 0.0
2018-May-12 17:30N 27°56' W 082°27'0 0.0
2018-May-12 17:00N 27°56' W 082°27'0 0.0
2018-May-12 16:30N 27°56' W 082°27'0 0.0
2018-May-12 16:00N 27°56' W 082°27'0 0.0
2018-May-12 15:27N 27°56' W 082°27'0 0.0
2018-May-12 15:00N 27°56' W 082°27'0 0.0
2018-May-12 14:30N 27°56' W 082°27'0 0.0
2018-May-12 13:57N 27°56' W 082°27'0 0.0
2018-May-12 13:18N 27°56' W 082°27'0 0.0
2018-May-12 12:54N 27°56' W 082°27'0 0.0
2018-May-12 12:30N 27°56' W 082°27'0 0.0
2018-May-12 12:00N 27°56' W 082°27'0 0.0
2018-May-12 11:24N 27°56' W 082°27'0 0.0
2018-May-12 11:00N 27°56' W 082°27'0 0.0
2018-May-12 10:30N 27°56' W 082°27'0 0.0
2018-May-12 09:57N 27°56' W 082°27'0 0.0
2018-May-12 09:27N 27°56' W 082°27'0 0.0
2018-May-12 09:00N 27°56' W 082°27'0 0.0
2018-May-12 08:30N 27°56' W 082°27'0 0.0
2018-May-12 08:00N 27°56' W 082°27'0 0.0
2018-May-12 07:30N 27°56' W 082°27'0 0.0
2018-May-12 07:00N 27°56' W 082°27'0 0.0
2018-May-12 06:30N 27°56' W 082°27'0 0.0
2018-May-12 06:00N 27°56' W 082°27'0 0.0
2018-May-12 05:27N 27°56' W 082°27'0 0.0
2018-May-12 05:00N 27°56' W 082°27'0 0.0
2018-May-12 04:30N 27°56' W 082°27'0 0.0
2018-May-12 04:00N 27°56' W 082°27'0 0.0
2018-May-12 03:30N 27°56' W 082°27'0 0.0
2018-May-12 02:59N 27°56' W 082°27'0 0.0
2018-May-12 02:30N 27°56' W 082°27'0 0.0
2018-May-12 02:00N 27°56' W 082°27'0 0.0
2018-May-12 01:30N 27°56' W 082°27'0 0.0
2018-May-12 01:00N 27°56' W 082°27'0 0.0
2018-May-12 00:30N 27°56' W 082°27'0 0.0
2018-May-12 00:00N 27°56' W 082°27'0 0.0
2018-May-11 23:30N 27°56' W 082°27'0 0.0
2018-May-11 23:00N 27°56' W 082°27'0 0.0
2018-May-11 22:29N 27°56' W 082°27'0 0.0
2018-May-11 21:59N 27°56' W 082°27'0 0.0
2018-May-11 21:29N 27°56' W 082°27'0 0.0
2018-May-11 21:00N 27°56' W 082°27'0 0.0
2018-May-11 20:30N 27°56' W 082°27'0 0.0
2018-May-11 20:00N 27°56' W 082°27'0 0.0
2018-May-11 19:29N 27°56' W 082°27'0 0.0
2018-May-11 19:00N 27°56' W 082°27'0 0.0
2018-May-11 18:30N 27°56' W 082°27'0 0.0
2018-May-11 18:00N 27°56' W 082°27'0 0.0
2018-May-11 17:30N 27°56' W 082°27'0 0.0
2018-May-11 16:59N 27°56' W 082°27'0 0.0
2018-May-11 16:30N 27°56' W 082°27'0 0.0
2018-May-11 16:00N 27°56' W 082°27'0 0.0
2018-May-11 15:29N 27°56' W 082°27'0 0.0
2018-May-11 14:59N 27°56' W 082°27'0 0.0
2018-May-11 14:29N 27°56' W 082°27'0 0.0
2018-May-11 14:00N 27°56' W 082°27'0 0.0
2018-May-11 13:29N 27°56' W 082°27'0 0.0
2018-May-11 12:59N 27°56' W 082°27'0 0.0
2018-May-11 12:29N 27°56' W 082°27'0 0.0
2018-May-11 11:59N 27°56' W 082°27'0 0.0
2018-May-11 11:29N 27°56' W 082°27'0 0.0
2018-May-11 11:00N 27°56' W 082°27'0 0.0
2018-May-11 10:29N 27°56' W 082°27'0 0.0
2018-May-11 09:59N 27°56' W 082°27'0 0.0
2018-May-11 09:29N 27°56' W 082°27'0 0.0
2018-May-11 08:59N 27°56' W 082°27'0 0.0
2018-May-11 08:29N 27°56' W 082°27'0 0.0
2018-May-11 07:59N 27°56' W 082°27'0 0.0
2018-May-11 07:29N 27°56' W 082°27'0 0.0
2018-May-11 06:59N 27°56' W 082°27'0 0.0
2018-May-11 06:29N 27°56' W 082°27'0 0.0
2018-May-11 05:54N 27°56' W 082°27'0 0.0
2018-May-11 05:29N 27°56' W 082°27'0 0.0
2018-May-11 04:59N 27°56' W 082°27'0 0.0
2018-May-11 04:29N 27°56' W 082°27'0 0.0
2018-May-11 04:00N 27°56' W 082°27'0 0.0
2018-May-11 03:29N 27°56' W 082°27'0 0.0
2018-May-11 02:59N 27°56' W 082°27'0 0.0
2018-May-11 02:29N 27°56' W 082°27'0 0.0
2018-May-11 01:59N 27°56' W 082°27'0 0.0
2018-May-11 01:29N 27°56' W 082°27'0 0.0
2018-May-11 00:59N 27°56' W 082°27'0 0.0
2018-May-11 00:29N 27°56' W 082°27'0 0.0
2018-May-10 23:59N 27°56' W 082°27'0 0.0
2018-May-10 23:29N 27°56' W 082°27'0 0.0
2018-May-10 22:59N 27°56' W 082°27'0 0.0
2018-May-10 22:29N 27°56' W 082°27'0 0.0
2018-May-10 21:59N 27°56' W 082°27'0 0.0
2018-May-10 21:29N 27°56' W 082°27'0 0.0
2018-May-10 20:59N 27°56' W 082°27'0 0.0
2018-May-10 20:29N 27°56' W 082°27'0 0.0
2018-May-10 19:59N 27°56' W 082°27'0 0.0
2018-May-10 19:26N 27°56' W 082°27'0 0.0
2018-May-10 18:59N 27°56' W 082°27'0 0.0
2018-May-10 18:29N 27°56' W 082°27'0 0.0
2018-May-10 17:59N 27°56' W 082°27'0 0.0
2018-May-10 17:29N 27°56' W 082°27'0 0.0
2018-May-10 16:59N 27°56' W 082°27'0 0.0
2018-May-10 16:23N 27°56' W 082°27'0 0.0
2018-May-10 15:59N 27°56' W 082°27'0 0.0
2018-May-10 15:29N 27°56' W 082°27'0 0.0
2018-May-10 14:59N 27°56' W 082°27'0 0.0
2018-May-10 14:29N 27°56' W 082°27'0 0.0
2018-May-10 13:59N 27°56' W 082°27'0 0.0
2018-May-10 13:29N 27°56' W 082°27'0 0.0
2018-May-10 12:59N 27°56' W 082°27'0 0.0
2018-May-10 12:29N 27°56' W 082°27'0 0.0
2018-May-10 11:59N 27°56' W 082°27'0 0.0
2018-May-10 11:29N 27°56' W 082°27'0 0.0
2018-May-10 10:59N 27°56' W 082°27'0 0.0
2018-May-10 10:29N 27°56' W 082°27'0 0.0
2018-May-10 09:59N 27°56' W 082°27'0 0.0
2018-May-10 09:29N 27°56' W 082°27'0 0.0
2018-May-10 08:59N 27°56' W 082°27'0 0.0
2018-May-10 08:29N 27°56' W 082°27'0 0.0
2018-May-10 07:59N 27°56' W 082°27'0 0.0
2018-May-10 07:29N 27°56' W 082°27'0 0.0
2018-May-10 06:59N 27°56' W 082°27'0 0.0
2018-May-10 06:29N 27°56' W 082°27'0 0.0
2018-May-10 05:59N 27°56' W 082°27'0 0.0
2018-May-10 05:29N 27°56' W 082°27'0 0.0
2018-May-10 04:59N 27°56' W 082°27'0 0.0
2018-May-10 04:29N 27°56' W 082°27'0 0.0
2018-May-10 03:59N 27°56' W 082°27'0 0.0
2018-May-10 03:29N 27°56' W 082°27'0 0.0
2018-May-10 02:59N 27°56' W 082°27'0 0.0
2018-May-10 02:29N 27°56' W 082°27'0 0.0
2018-May-10 01:59N 27°56' W 082°27'0 0.0
2018-May-10 01:29N 27°56' W 082°27'0 0.0
2018-May-10 00:59N 27°56' W 082°27'0 0.0
2018-May-10 00:29N 27°56' W 082°27'0 0.0
2018-May-09 23:59N 27°56' W 082°27'0 0.0
2018-May-09 23:29N 27°56' W 082°27'0 0.0
2018-May-09 22:59N 27°56' W 082°27'0 0.0
2018-May-09 22:29N 27°56' W 082°27'0 0.0
2018-May-09 21:59N 27°56' W 082°27'0 0.0
2018-May-09 21:29N 27°56' W 082°27'0 0.0
2018-May-09 20:59N 27°56' W 082°27'0 0.0
2018-May-09 20:29N 27°56' W 082°27'0 0.0
2018-May-09 19:59N 27°56' W 082°27'0 0.0
2018-May-09 19:29N 27°56' W 082°27'0 0.0
2018-May-09 18:59N 27°56' W 082°27'0 0.0
2018-May-09 18:29N 27°56' W 082°27'0 0.0
2018-May-09 17:59N 27°56' W 082°27'0 0.0
2018-May-09 17:29N 27°56' W 082°27'0 0.0
2018-May-09 16:59N 27°56' W 082°27'0 0.0
2018-May-09 16:29N 27°56' W 082°27'0 0.0
2018-May-09 15:59N 27°56' W 082°27'0 0.0
2018-May-09 15:29N 27°56' W 082°27'0 0.0
2018-May-09 14:59N 27°56' W 082°27'0 0.4
2018-May-09 14:29N 27°57' W 082°27'0 0.5
2018-May-09 13:58N 27°56' W 082°27'0 0.0
2018-May-09 13:28N 27°56' W 082°27'0 0.0
2018-May-09 12:58N 27°56' W 082°27'0 0.0
2018-May-09 12:28N 27°56' W 082°27'0 0.0
2018-May-09 11:58N 27°56' W 082°27'0 0.0
2018-May-09 11:25N 27°56' W 082°27'0 0.0
2018-May-09 10:58N 27°56' W 082°27'0 0.0
2018-May-09 10:28N 27°56' W 082°27'0 0.0
2018-May-09 09:58N 27°56' W 082°27'0 0.0
2018-May-09 09:25N 27°56' W 082°27'0 0.0
2018-May-09 08:58N 27°56' W 082°27'0 0.0
2018-May-09 08:28N 27°56' W 082°27'0 0.0
2018-May-09 07:58N 27°56' W 082°27'0 0.0
2018-May-09 07:28N 27°56' W 082°27'0 0.0
2018-May-09 06:58N 27°56' W 082°27'0 0.0
2018-May-09 06:28N 27°56' W 082°27'0 0.0
2018-May-09 05:55N 27°56' W 082°27'0 0.0
2018-May-09 05:28N 27°56' W 082°27'0 0.0
2018-May-09 04:58N 27°56' W 082°27'0 0.0
2018-May-09 04:28N 27°56' W 082°27'0 0.0
2018-May-09 03:58N 27°56' W 082°27'0 0.0
2018-May-09 03:28N 27°56' W 082°27'0 0.0
2018-May-09 02:58N 27°56' W 082°27'0 0.0
2018-May-09 02:28N 27°56' W 082°27'0 0.0
2018-May-09 01:58N 27°56' W 082°27'0 0.0
2018-May-09 01:28N 27°56' W 082°27'0 0.0
2018-May-09 00:58N 27°56' W 082°27'0 0.0
2018-May-09 00:25N 27°56' W 082°27'0 0.0
2018-May-08 23:58N 27°56' W 082°27'0 0.0
2018-May-08 23:28N 27°56' W 082°27'0 0.0
2018-May-08 22:58N 27°56' W 082°27'0 0.0
2018-May-08 22:28N 27°56' W 082°27'0 0.0
2018-May-08 21:58N 27°56' W 082°27'0 0.0
2018-May-08 21:28N 27°56' W 082°27'0 0.0
2018-May-08 20:58N 27°56' W 082°27'0 0.0
2018-May-08 20:28N 27°56' W 082°27'0 0.0
2018-May-08 19:58N 27°56' W 082°27'0 0.0
2018-May-08 19:28N 27°56' W 082°27'0 0.0
2018-May-08 18:58N 27°56' W 082°27'0 0.0
2018-May-08 18:28N 27°56' W 082°27'0 0.0
2018-May-08 17:58N 27°56' W 082°27'0 0.0
2018-May-08 17:28N 27°56' W 082°27'0 0.0
2018-May-08 16:58N 27°56' W 082°27'0 0.0
2018-May-08 16:28N 27°56' W 082°27'0 0.0
2018-May-08 15:58N 27°56' W 082°27'0 0.0
2018-May-08 15:28N 27°56' W 082°27'0 0.0
2018-May-08 14:58N 27°56' W 082°27'0 0.0
2018-May-08 14:28N 27°56' W 082°27'0 0.0
2018-May-08 13:58N 27°56' W 082°27'0 0.0
2018-May-08 13:28N 27°56' W 082°27'0 0.0
2018-May-08 12:58N 27°56' W 082°27'0 0.0
2018-May-08 12:28N 27°56' W 082°27'0 0.0
2018-May-08 11:58N 27°56' W 082°27'0 0.0
2018-May-08 11:25N 27°56' W 082°27'0 0.0
2018-May-08 10:58N 27°56' W 082°27'0 0.0
2018-May-08 10:28N 27°56' W 082°27'0 0.0
2018-May-08 09:58N 27°56' W 082°27'0 0.0
2018-May-08 09:28N 27°56' W 082°27'0 0.0
2018-May-08 08:58N 27°56' W 082°27'0 0.0
2018-May-08 08:28N 27°56' W 082°27'0 0.0
2018-May-08 07:58N 27°56' W 082°27'0 0.0
2018-May-08 07:28N 27°56' W 082°27'0 0.0
2018-May-08 06:58N 27°56' W 082°27'0 0.0
2018-May-08 06:28N 27°56' W 082°27'0 0.0
2018-May-08 05:58N 27°56' W 082°27'0 0.0
2018-May-08 05:28N 27°56' W 082°27'0 0.0
2018-May-08 04:58N 27°56' W 082°27'0 0.0
2018-May-08 04:28N 27°56' W 082°27'0 0.0
2018-May-08 03:58N 27°56' W 082°27'0 0.0
2018-May-08 03:28N 27°56' W 082°27'0 0.0
2018-May-08 02:58N 27°56' W 082°27'0 0.0
2018-May-08 02:28N 27°56' W 082°27'0 0.0
2018-May-08 01:58N 27°56' W 082°27'0 0.0
2018-May-08 01:28N 27°56' W 082°27'0 0.0
2018-May-08 00:55N 27°56' W 082°27'0 0.0
2018-May-08 00:28N 27°56' W 082°27'0 0.0
2018-May-07 23:58N 27°56' W 082°27'0 0.0
2018-May-07 23:28N 27°56' W 082°27'0 0.0
2018-May-07 22:58N 27°56' W 082°27'0 0.0
2018-May-07 22:28N 27°56' W 082°27'0 0.0
2018-May-07 21:58N 27°56' W 082°27'0 0.0
2018-May-07 21:28N 27°56' W 082°27'0 0.0
2018-May-07 20:58N 27°56' W 082°27'0 0.0
2018-May-07 20:28N 27°56' W 082°27'0 0.0
2018-May-07 19:58N 27°56' W 082°27'0 0.0
2018-May-07 19:28N 27°56' W 082°27'0 0.0
2018-May-07 18:58N 27°56' W 082°27'0 0.0
2018-May-07 18:28N 27°56' W 082°27'0 0.0
2018-May-07 17:58N 27°56' W 082°27'0 0.0
2018-May-07 17:28N 27°56' W 082°27'0 0.0
2018-May-07 16:58N 27°56' W 082°27'0 0.0
2018-May-07 16:28N 27°56' W 082°27'0 0.0
2018-May-07 15:55N 27°56' W 082°27'0 0.0
2018-May-07 15:28N 27°56' W 082°27'0 0.0
2018-May-07 14:58N 27°56' W 082°27'0 0.0
2018-May-07 14:28N 27°56' W 082°27'0 0.0
2018-May-07 13:58N 27°56' W 082°27'0 0.0
2018-May-07 13:28N 27°56' W 082°27'0 0.0
2018-May-07 12:58N 27°56' W 082°27'0 0.0
2018-May-07 12:28N 27°56' W 082°27'0 0.0
2018-May-07 11:58N 27°56' W 082°27'0 0.0
2018-May-07 11:28N 27°56' W 082°27'0 0.0
2018-May-07 10:58N 27°56' W 082°27'0 0.0
2018-May-07 10:28N 27°56' W 082°27'0 0.0
2018-May-07 09:58N 27°56' W 082°27'0 0.0
2018-May-07 09:28N 27°56' W 082°27'0 0.0
2018-May-07 08:58N 27°56' W 082°27'0 0.0
2018-May-07 08:28N 27°56' W 082°27'0 0.0
2018-May-07 07:58N 27°56' W 082°27'0 0.0
2018-May-07 07:28N 27°56' W 082°27'0 0.0
2018-May-07 06:58N 27°56' W 082°27'0 0.0
2018-May-07 06:28N 27°56' W 082°27'0 0.0
2018-May-07 05:58N 27°56' W 082°27'0 0.0
2018-May-07 05:28N 27°56' W 082°27'0 0.0
2018-May-07 04:58N 27°56' W 082°27'0 0.0
2018-May-07 04:28N 27°56' W 082°27'0 0.0
2018-May-07 03:58N 27°56' W 082°27'0 0.0
2018-May-07 03:28N 27°56' W 082°27'0 0.0
2018-May-07 02:58N 27°56' W 082°27'0 0.0
2018-May-07 02:28N 27°56' W 082°27'0 0.0
2018-May-07 01:58N 27°56' W 082°27'0 0.0
2018-May-07 01:28N 27°56' W 082°27'0 0.0
2018-May-07 00:55N 27°56' W 082°27'0 0.0
2018-May-07 00:28N 27°56' W 082°27'0 0.0
2018-May-06 23:58N 27°56' W 082°27'0 0.0
2018-May-06 23:28N 27°56' W 082°27'0 0.0
2018-May-06 22:58N 27°56' W 082°27'0 0.0
2018-May-06 22:28N 27°56' W 082°27'0 0.0
2018-May-06 21:58N 27°56' W 082°27'0 0.0
2018-May-06 21:28N 27°56' W 082°27'0 0.0
2018-May-06 20:58N 27°56' W 082°27'0 0.0
2018-May-06 20:28N 27°56' W 082°27'0 0.0
2018-May-06 19:58N 27°56' W 082°27'0 0.0
2018-May-06 19:28N 27°56' W 082°27'0 0.0
2018-May-06 18:58N 27°56' W 082°27'0 0.0
2018-May-06 18:28N 27°56' W 082°27'0 0.0
2018-May-06 17:58N 27°56' W 082°27'0 0.0
2018-May-06 17:28N 27°56' W 082°27'0 0.0
2018-May-06 16:58N 27°56' W 082°27'0 0.0
2018-May-06 16:28N 27°56' W 082°27'0 0.0
2018-May-06 15:58N 27°56' W 082°27'0 0.0
2018-May-06 15:28N 27°56' W 082°27'0 0.0
2018-May-06 14:58N 27°56' W 082°27'0 0.0
2018-May-06 14:28N 27°56' W 082°27'0 0.0
2018-May-06 13:58N 27°56' W 082°27'0 0.0
2018-May-06 13:28N 27°56' W 082°27'0 0.0
2018-May-06 12:58N 27°56' W 082°27'0 0.0
2018-May-06 12:28N 27°56' W 082°27'0 0.0
2018-May-06 11:58N 27°56' W 082°27'0 0.0
2018-May-06 11:28N 27°56' W 082°27'0 0.0
2018-May-06 10:57N 27°56' W 082°27'0 0.0
2018-May-06 10:31N 27°56' W 082°27'0 0.0
2018-May-06 10:01N 27°56' W 082°27'0 0.0
2018-May-06 09:28N 27°56' W 082°27'0 0.0
2018-May-06 08:58N 27°56' W 082°27'0 0.0
2018-May-06 08:28N 27°56' W 082°27'0 0.0
2018-May-06 08:00N 27°56' W 082°27'0 0.0
2018-May-06 07:28N 27°56' W 082°27'0 0.0
2018-May-06 06:58N 27°56' W 082°27'0 0.0
2018-May-06 06:28N 27°56' W 082°27'0 0.0
2018-May-06 05:58N 27°56' W 082°27'0 0.0
2018-May-06 05:28N 27°56' W 082°27'0 0.0
2018-May-06 04:58N 27°56' W 082°27'0 0.0
2018-May-06 04:31N 27°56' W 082°27'0 0.0
2018-May-06 03:58N 27°56' W 082°27'0 0.0
2018-May-06 03:28N 27°56' W 082°27'0 0.0
2018-May-06 02:58N 27°56' W 082°27'0 0.0
2018-May-06 02:31N 27°56' W 082°27'0 0.0
2018-May-06 02:00N 27°56' W 082°27'0 0.0
2018-May-06 01:28N 27°56' W 082°27'0 0.0
2018-May-06 00:57N 27°56' W 082°27'0 0.0
2018-May-06 00:28N 27°56' W 082°27'0 0.0
2018-May-05 23:58N 27°56' W 082°27'0 0.0
2018-May-05 23:28N 27°56' W 082°27'0 0.0
2018-May-05 22:58N 27°56' W 082°27'0 0.0
2018-May-05 22:28N 27°56' W 082°27'0 0.0
2018-May-05 21:57N 27°56' W 082°27'0 0.0
2018-May-05 21:28N 27°56' W 082°27'0 0.0
2018-May-05 21:00N 27°56' W 082°27'0 0.0
2018-May-05 20:30N 27°56' W 082°27'0 0.0
2018-May-05 19:57N 27°56' W 082°27'0 0.0
2018-May-05 19:31N 27°56' W 082°27'0 0.0
2018-May-05 19:00N 27°56' W 082°27'0 0.0
2018-May-05 18:30N 27°56' W 082°27'0 0.0
2018-May-05 18:00N 27°56' W 082°27'0 0.0
2018-May-05 17:31N 27°56' W 082°27'0 0.0
2018-May-05 16:57N 27°56' W 082°27'0 0.0
2018-May-05 16:27N 27°56' W 082°27'0 0.0
2018-May-05 16:00N 27°56' W 082°27'0 0.0
2018-May-05 15:31N 27°56' W 082°27'0 0.0
2018-May-05 15:00N 27°56' W 082°27'0 0.0
2018-May-05 14:30N 27°56' W 082°27'0 0.0
2018-May-05 14:00N 27°56' W 082°27'0 0.0
2018-May-05 13:30N 27°56' W 082°27'0 0.0
2018-May-05 13:00N 27°56' W 082°27'0 0.0
2018-May-05 12:30N 27°56' W 082°27'0 0.0
2018-May-05 12:00N 27°56' W 082°27'0 0.0
2018-May-05 11:27N 27°56' W 082°27'0 0.0
2018-May-05 10:57N 27°56' W 082°27'0 0.0
2018-May-05 10:30N 27°56' W 082°27'0 0.0
2018-May-05 10:00N 27°56' W 082°27'0 0.0
2018-May-05 09:27N 27°56' W 082°27'0 0.0
2018-May-05 09:01N 27°56' W 082°27'0 0.0
2018-May-05 08:31N 27°56' W 082°27'0 0.0
2018-May-05 08:00N 27°56' W 082°27'0 0.0
2018-May-05 07:30N 27°56' W 082°27'0 0.0
2018-May-05 07:00N 27°56' W 082°27'0 0.0
2018-May-05 06:30N 27°56' W 082°27'0 0.0
2018-May-05 06:00N 27°56' W 082°27'0 0.0
2018-May-05 05:30N 27°56' W 082°27'0 0.0
2018-May-05 05:00N 27°56' W 082°27'  

Dump ship's entire track history